YBML weather

CLOSED Bromelton Airport
Queensland, Australia

Public forecast

Using degrees Celsius for public forecast. Weather courtesy of forecast.io.

METAR (pilot weather report)

Closest report is RAAF Base Amberley, 22.1 nm (40.9 km) NNW. Retrieved 2019/02/18 06:30 UTC (7 minutes ago):

YAMB 180630Z 09013KT CAVOK 31/16 Q1007 NOSIG

TAF (pilot weather forecast)

Forecast is more than 12 hours old.

Closest forecast is RAAF Base Amberley, 22.1 nm (40.9 km) NNW. Retrieved 2019/02/17 00:00 UTC (1 day ago):

TAF YAMB 172309Z 1800/1818 09010KT 9999 SCT040 FM180500 07016KT CAVOK FM181000 09008KT 9999 FEW030 FM181600 VRB03KT 9999 SCT025 PROB30 1816/1818 2000 BR FEW002